Time;durP1;ratioP1;P1;durP2;ratioP2;P2;SDS_P1;SDS_P2;PMS_P1;PMS_P2;Temp;Humidity;BMP_temperature;BMP_pressure;BME280_temperature;BME280_humidity;BME280_pressure;Samples;Min_cycle;Max_cycle;Signal;HPM_P1;HPM_P2
2022/03/11 00:06:45;;;;;;;15.05;5.22;;;11.90;64.30;;;;;;20667172;28;20046;-60
2022/03/11 00:16:47;;;;;;;12.15;4.65;;;11.70;64.90;;;;;;20668268;28;20046;-60
2022/03/11 00:26:49;;;;;;;11.48;4.07;;;11.50;65.60;;;;;;20666286;28;20054;-57
2022/03/11 00:36:51;;;;;;;15.82;6.03;;;11.50;65.70;;;;;;20666950;28;20043;-59
2022/03/11 00:46:53;;;;;;;26.00;8.95;;;11.60;65.70;;;;;;20666062;28;20176;-56
2022/03/11 00:56:54;;;;;;;14.77;5.82;;;11.60;65.50;;;;;;20665535;28;20042;-57
2022/03/11 01:06:56;;;;;;;10.02;4.60;;;11.40;66.10;;;;;;20666130;28;20066;-60
2022/03/11 01:16:58;;;;;;;11.40;4.75;;;11.20;66.50;;;;;;20675841;28;20042;-58
2022/03/11 01:27:00;;;;;;;12.68;5.40;;;11.10;67.00;;;;;;20680089;28;20069;-59
2022/03/11 01:37:02;;;;;;;13.48;5.20;;;11.10;66.80;;;;;;20679141;28;20042;-61
2022/03/11 01:47:04;;;;;;;11.02;5.10;;;11.00;67.40;;;;;;20678740;28;20058;-60
2022/03/11 01:57:05;;;;;;;12.85;5.32;;;10.70;67.80;;;;;;20677757;28;20454;-58
2022/03/11 02:07:08;;;;;;;14.55;5.20;;;10.90;67.60;;;;;;20677608;28;20062;-57
2022/03/11 02:17:10;;;;;;;13.25;5.50;;;11.10;67.10;;;;;;20677461;28;20101;-57
2022/03/11 02:27:12;;;;;;;9.43;4.07;;;11.30;66.40;;;;;;20674717;28;20423;-61
2022/03/11 02:37:14;;;;;;;8.70;4.13;;;11.30;66.20;;;;;;20676592;28;20056;-59
2022/03/11 02:47:16;;;;;;;8.10;2.88;;;11.30;66.20;;;;;;20675776;28;20470;-59
2022/03/11 02:57:18;;;;;;;8.43;3.50;;;11.30;66.10;;;;;;20674700;28;20047;-58
2022/03/11 03:07:26;;;;;;;6.30;2.70;;;11.30;65.90;;;;;;20672803;28;20062;-59
2022/03/11 03:17:45;;;;;;;6.03;3.20;;;11.40;66.00;;;;;;20672874;28;20069;-60
2022/03/11 03:28:06;;;;;;;6.35;2.85;;;11.40;66.00;;;;;;20670865;28;20046;-57
2022/03/11 03:38:27;;;;;;;6.47;2.80;;;11.30;66.20;;;;;;20670600;28;20046;-57
2022/03/11 03:48:48;;;;;;;7.93;3.72;;;11.40;66.00;;;;;;20669537;28;20046;-57
2022/03/11 03:59:11;;;;;;;6.45;3.00;;;11.40;66.50;;;;;;20669001;28;20137;-56
2022/03/11 04:09:32;;;;;;;8.15;2.97;;;11.40;66.60;;;;;;20668405;28;20047;-60
2022/03/11 04:19:53;;;;;;;5.63;3.30;;;11.50;66.30;;;;;;20668342;28;20552;-62
2022/03/11 04:30:14;;;;;;;8.00;3.53;;;11.50;66.30;;;;;;20667591;28;20406;-59
2022/03/11 04:40:35;;;;;;;11.13;4.18;;;11.40;66.40;;;;;;20675436;28;20501;-58
2022/03/11 04:50:56;;;;;;;8.38;3.10;;;11.20;66.70;;;;;;20676702;28;20145;-60
2022/03/11 05:01:17;;;;;;;7.93;2.70;;;10.90;67.50;;;;;;20683122;28;20133;-62
2022/03/11 05:11:39;;;;;;;7.97;3.53;;;10.90;67.50;;;;;;20680967;28;20387;-63
2022/03/11 05:22:00;;;;;;;8.05;3.38;;;10.90;67.60;;;;;;20680303;28;20046;-61
2022/03/11 05:32:21;;;;;;;9.63;4.28;;;10.80;68.20;;;;;;20679681;28;20050;-60
2022/03/11 05:42:40;;;;;;;7.82;4.05;;;10.80;68.50;;;;;;20678582;28;20120;-60
2022/03/11 05:53:02;;;;;;;6.78;3.47;;;11.00;68.00;;;;;;20679044;28;20050;-60
2022/03/11 06:03:20;;;;;;;6.93;3.00;;;11.10;68.30;;;;;;20677196;28;20482;-59
2022/03/11 06:13:29;;;;;;;5.13;2.75;;;11.10;68.10;;;;;;20689672;28;20150;-58
2022/03/11 06:23:36;;;;;;;4.00;2.17;;;11.10;68.50;;;;;;20676085;28;20058;-61
2022/03/11 06:33:39;;;;;;;8.45;2.22;;;11.10;69.00;;;;;;20674601;28;20141;-61
2022/03/11 06:43:43;;;;;;;4.53;2.13;;;11.10;69.50;;;;;;20673889;28;20085;-59
2022/03/11 06:53:48;;;;;;;3.50;1.92;;;11.00;69.60;;;;;;20672539;28;20047;-59
2022/03/11 07:03:52;;;;;;;5.50;2.40;;;11.10;69.30;;;;;;20672100;28;20495;-59
2022/03/11 07:13:57;;;;;;;5.05;2.15;;;11.00;69.40;;;;;;20670701;28;20072;-59
2022/03/11 07:24:05;;;;;;;6.22;3.65;;;11.00;69.70;;;;;;20671165;28;20141;-60
2022/03/11 07:34:08;;;;;;;6.93;3.25;;;10.90;70.40;;;;;;20669040;28;20384;-61
2022/03/11 07:44:13;;;;;;;9.05;3.95;;;10.80;71.20;;;;;;20669207;28;20120;-61
2022/03/11 07:54:18;;;;;;;9.35;4.72;;;10.90;72.00;;;;;;20668821;28;20103;-59
2022/03/11 08:04:24;;;;;;;8.73;4.20;;;10.80;73.00;;;;;;20667563;28;20053;-61
2022/03/11 08:14:28;;;;;;;6.28;4.63;;;10.70;74.20;;;;;;20682645;28;20050;-58
2022/03/11 08:24:34;;;;;;;7.88;4.63;;;10.70;74.90;;;;;;20666882;28;20470;-60
2022/03/11 08:34:42;;;;;;;7.88;4.50;;;10.80;75.50;;;;;;20667826;28;20046;-60
2022/03/11 08:45:05;;;;;;;6.45;4.20;;;10.70;76.70;;;;;;20667478;28;20058;-61
2022/03/11 08:55:26;;;;;;;9.10;4.10;;;10.70;77.40;;;;;;20667165;28;20046;-60
2022/03/11 09:05:47;;;;;;;6.57;4.10;;;10.90;77.40;;;;;;20680149;28;20072;-65
2022/03/11 09:16:07;;;;;;;6.97;3.65;;;10.90;77.70;;;;;;20657645;28;20505;-70
2022/03/11 09:26:20;;;;;;;8.30;4.20;;;11.10;77.50;;;;;;20668086;28;20077;-71
2022/03/11 09:36:31;;;;;;;6.20;4.32;;;10.90;78.40;;;;;;20672793;28;20082;-61
2022/03/11 09:46:46;;;;;;;11.30;6.25;;;11.30;78.40;;;;;;20679375;28;20570;-57
2022/03/11 09:56:53;;;;;;;6.70;3.63;;;11.40;77.60;;;;;;20679151;28;20046;-59
2022/03/11 10:07:30;;;;;;;6.13;4.15;;;11.40;78.10;;;;;;20677101;28;20104;-58
2022/03/11 10:17:42;;;;;;;8.20;4.70;;;11.40;78.10;;;;;;20680778;28;20058;-59
2022/03/11 10:28:04;;;;;;;6.53;4.43;;;11.30;79.00;;;;;;20676069;28;20510;-55
2022/03/11 10:38:16;;;;;;;6.88;3.65;;;11.30;79.60;;;;;;20674907;28;20094;-58
2022/03/11 10:48:45;;;;;;;10.57;6.45;;;11.50;79.60;;;;;;20673355;28;20054;-63
2022/03/11 10:58:49;;;;;;;8.18;4.35;;;11.60;79.80;;;;;;20671635;28;20487;-61
2022/03/11 11:08:55;;;;;;;12.40;6.80;;;11.70;80.00;;;;;;20671992;28;20116;-60
2022/03/11 11:19:02;;;;;;;16.55;9.48;;;12.10;79.60;;;;;;20671445;28;20553;-62
2022/03/11 11:29:08;;;;;;;3.33;2.05;;;12.20;79.50;;;;;;20663183;28;20065;-58
2022/03/11 11:39:13;;;;;;;11.20;4.88;;;13.00;77.70;;;;;;20652284;28;20046;-63
2022/03/11 11:49:22;;;;;;;2.55;1.15;;;13.20;76.50;;;;;;20660942;28;20396;-59
2022/03/11 11:59:27;;;;;;;3.45;1.05;;;12.90;76.40;;;;;;20652293;28;20058;-57
2022/03/11 12:09:47;;;;;;;4.03;1.20;;;13.20;75.90;;;;;;20666792;28;20053;-59
2022/03/11 12:19:51;;;;;;;1.92;1.10;;;13.10;75.70;;;;;;20666985;28;20050;-61
2022/03/11 12:30:07;;;;;;;2.17;0.80;;;13.00;74.80;;;;;;20666574;28;20415;-58
2022/03/11 12:40:10;;;;;;;0.55;0.32;;;13.50;73.50;;;;;;20665846;28;20050;-59
2022/03/11 12:50:13;;;;;;;7.22;2.60;;;13.50;72.40;;;;;;20679739;28;20093;-61
2022/03/11 13:00:22;;;;;;;4.30;1.48;;;13.70;72.00;;;;;;20665598;28;20526;-59
2022/03/11 13:10:26;;;;;;;2.20;0.75;;;13.80;71.30;;;;;;20670038;28;20054;-61
2022/03/11 13:20:32;;;;;;;4.40;1.90;;;13.80;70.90;;;;;;20679691;28;20116;-58
2022/03/11 13:30:35;;;;;;;2.38;0.63;;;14.10;69.90;;;;;;20695816;28;20065;-60
2022/03/11 13:40:50;;;;;;;1.90;0.57;;;14.40;68.70;;;;;;20680363;28;20074;-60
2022/03/11 13:51:00;;;;;;;1.05;0.45;;;14.50;68.40;;;;;;20683440;28;20537;-60
2022/03/11 14:01:10;;;;;;;3.17;0.70;;;14.80;67.10;;;;;;20681574;28;20062;-61
2022/03/11 14:11:11;;;;;;;1.15;0.80;;;15.20;65.40;;;;;;20677315;28;20501;-57
2022/03/11 14:21:14;;;;;;;2.05;0.70;;;15.40;64.40;;;;;;20674464;28;20112;-58
2022/03/11 14:31:15;;;;;;;3.08;0.73;;;15.40;63.90;;;;;;20673703;28;20137;-61
2022/03/11 14:41:17;;;;;;;2.80;0.60;;;15.30;63.90;;;;;;20673593;28;20482;-61
2022/03/11 14:51:19;;;;;;;1.50;0.50;;;15.70;62.00;;;;;;20672958;28;20122;-59
2022/03/11 15:01:21;;;;;;;2.33;0.55;;;15.50;62.00;;;;;;20672798;28;20066;-59
2022/03/11 15:11:23;;;;;;;1.25;0.60;;;15.40;62.00;;;;;;20671050;28;20064;-59
2022/03/11 15:21:26;;;;;;;0.82;0.50;;;15.30;60.60;;;;;;20670865;28;20456;-56
2022/03/11 15:31:30;;;;;;;6.40;0.55;;;15.30;60.00;;;;;;20669660;28;20052;-60
2022/03/11 15:41:33;;;;;;;2.85;0.50;;;15.30;60.10;;;;;;20670502;28;20042;-60
2022/03/11 15:51:40;;;;;;;2.08;0.45;;;15.00;60.80;;;;;;20672950;28;20545;-60
2022/03/11 16:01:42;;;;;;;2.03;0.70;;;14.70;62.30;;;;;;20670550;28;20042;-61
2022/03/11 16:11:44;;;;;;;2.00;0.52;;;14.40;64.50;;;;;;20668352;28;20109;-61
2022/03/11 16:21:46;;;;;;;2.33;0.60;;;14.20;66.60;;;;;;20681310;28;20070;-60
2022/03/11 16:31:48;;;;;;;1.85;0.55;;;13.70;68.90;;;;;;20666099;28;20048;-72
2022/03/11 16:41:55;;;;;;;3.20;1.13;;;13.40;70.50;;;;;;20669672;28;20057;-57
2022/03/11 16:51:57;;;;;;;5.03;0.95;;;13.70;70.20;;;;;;20681513;28;20070;-62
2022/03/11 17:01:59;;;;;;;1.70;0.70;;;13.60;70.60;;;;;;20681397;28;20051;-63
2022/03/11 17:12:01;;;;;;;2.28;0.70;;;13.40;71.10;;;;;;20679313;28;20069;-61
2022/03/11 17:22:06;;;;;;;1.67;0.63;;;13.00;71.30;;;;;;20679636;28;20061;-62
2022/03/11 17:32:07;;;;;;;3.30;0.90;;;12.90;71.10;;;;;;20683876;28;20054;-70
2022/03/11 17:42:11;;;;;;;4.05;1.20;;;12.80;71.30;;;;;;20682694;28;20467;-69
2022/03/11 17:52:15;;;;;;;5.80;1.10;;;12.70;72.20;;;;;;20679991;28;20510;-62
2022/03/11 18:02:17;;;;;;;3.78;1.88;;;12.50;73.20;;;;;;20677338;28;20089;-73
2022/03/11 18:12:19;;;;;;;4.00;1.30;;;12.50;73.50;;;;;;20678170;28;20050;-57
2022/03/11 18:22:23;;;;;;;4.07;0.68;;;12.60;71.80;;;;;;20676447;28;20058;-61
2022/03/11 18:32:26;;;;;;;5.72;1.00;;;12.00;71.40;;;;;;20675554;28;20062;-66
2022/03/11 18:42:32;;;;;;;4.00;0.80;;;11.80;72.20;;;;;;20683405;28;20051;-69
2022/03/11 18:52:34;;;;;;;6.45;1.23;;;11.50;73.80;;;;;;20677592;28;20069;-61
2022/03/11 19:02:36;;;;;;;4.05;0.88;;;11.40;74.20;;;;;;20672648;28;20050;-65
2022/03/11 19:12:39;;;;;;;4.28;0.90;;;11.30;75.00;;;;;;20672160;28;20062;-64
2022/03/11 19:22:41;;;;;;;2.22;0.60;;;11.40;75.50;;;;;;20684932;28;20055;-63
2022/03/11 19:32:45;;;;;;;3.38;0.95;;;11.30;75.40;;;;;;20669031;28;20384;-61
2022/03/11 19:42:47;;;;;;;6.93;0.95;;;11.10;75.40;;;;;;20670532;28;20134;-56
2022/03/11 19:52:51;;;;;;;3.35;1.08;;;11.40;77.30;;;;;;20668660;28;20050;-61
2022/03/11 20:02:59;;;;;;;4.70;1.10;;;11.70;74.90;;;;;;20669631;28;20403;-62
2022/03/11 20:13:01;;;;;;;7.97;1.85;;;11.20;75.60;;;;;;20667904;28;20054;-61
2022/03/11 20:23:03;;;;;;;4.78;1.58;;;11.00;76.40;;;;;;20668617;28;20050;-60
2022/03/11 20:33:05;;;;;;;6.70;1.50;;;10.90;76.10;;;;;;20668930;28;20061;-62
2022/03/11 20:43:07;;;;;;;4.45;1.23;;;10.80;76.20;;;;;;20669084;28;20046;-60
2022/03/11 20:53:10;;;;;;;3.10;1.20;;;10.80;75.70;;;;;;20667213;28;20168;-61
2022/03/11 21:03:14;;;;;;;8.68;1.58;;;10.80;75.40;;;;;;20666919;28;20444;-60
2022/03/11 21:13:17;;;;;;;5.78;1.45;;;10.70;76.00;;;;;;20668326;28;20061;-60
2022/03/11 21:23:20;;;;;;;3.08;0.98;;;10.60;75.90;;;;;;20664419;28;20054;-60
2022/03/11 21:33:23;;;;;;;2.55;0.90;;;10.60;75.30;;;;;;20674583;28;20469;-62
2022/03/11 21:43:26;;;;;;;3.63;0.82;;;10.60;74.50;;;;;;20680677;28;20046;-61
2022/03/11 21:53:29;;;;;;;5.65;1.45;;;10.60;74.30;;;;;;20678768;28;20058;-61
2022/03/11 22:03:33;;;;;;;2.88;0.93;;;10.50;74.10;;;;;;20677789;28;20054;-61
2022/03/11 22:13:36;;;;;;;2.30;0.90;;;10.40;73.90;;;;;;20677596;28;20050;-62
2022/03/11 22:23:40;;;;;;;4.97;1.35;;;10.30;74.80;;;;;;20675921;28;20086;-60
2022/03/11 22:33:43;;;;;;;4.55;1.77;;;10.20;75.20;;;;;;20676360;28;20054;-62
2022/03/11 22:43:46;;;;;;;3.85;1.17;;;10.10;75.30;;;;;;20674493;28;20082;-61
2022/03/11 22:53:48;;;;;;;5.22;1.27;;;9.80;75.80;;;;;;20673997;28;20050;-62
2022/03/11 23:03:51;;;;;;;4.53;0.82;;;9.70;76.10;;;;;;20673817;28;20104;-62
2022/03/11 23:13:54;;;;;;;2.55;1.08;;;9.70;76.50;;;;;;20673461;28;20054;-62
2022/03/11 23:23:58;;;;;;;2.47;0.73;;;9.70;75.80;;;;;;20671290;28;20057;-62
2022/03/11 23:34:19;;;;;;;0.93;0.50;;;9.80;75.40;;;;;;20670018;28;20398;-61
2022/03/11 23:44:24;;;;;;;1.83;0.85;;;9.80;75.10;;;;;;20670343;28;20054;-60
2022/03/11 23:54:27;;;;;;;2.30;0.75;;;9.80;74.90;;;;;;20669886;28;20466;-61
